Portada
METAR-TAF:

METAR-TAF

Aeropuertos :

Aeropuerto de Castellón-Costa Azahar

Castellón de la Plana, España

latitud: 40-12-35N, longitud: 0-04-11E, altitud: 360 m

Observación

El informe se hizo hace 27 minutos, a las 12:00 UTC
Viento 8 kt del sur-sureste, variando entre este-sureste y sur-suroeste
Temperatura 22°C
Humedad 50%
Presión 1014 hPa
Visibilidad 10 km o más
Cielo nuboso a una altura de 4100 ft
Cielo nuboso a una altura de 5000 ft

METAR: LECH 261200Z AUTO 15008KT 120V200 9999 BKN041 BKN050 22/11 Q1014

Hora: 14:27 (12:27 UTC)


TAF: falta

Observaciones y pronósticos meteorológicos de más de 4000 aeropuertos (mensajes METAR y TAF).

Los puntos amarillos y rojos representan las estaciones disponibles.

Ponga el ratón en el punto deseado para ver el nombre de la estación.

Haga clic para ver las observaciones y los pronósticos meteorológicos.

Para cambiar el mapa : haga clic en los botones verdes con una cruz de color negro para hacer un zoom, en el botón verde con un guión para alejar o en las flechas verdes para mapas adyacentes.


METAR-TAF: